CANAVERAL EAST 120NM East of Cape Canaveral (41010)

Conditions for Tuesday

Daily
Weekly
Monthly
Marine Data Graph

Current Weather/Wave Observations

Air Temperature: 83° F
Humidity: 70
Wind direction (W Dir): SW (225 - 234 Degrees)
Wind Speed (W Spd): 9.7 kts (11.2 mph)
Wind Gust (W Spd): 11.7 kts (13.4 mph)
Atmospheric Pressure (AP): 30.02 in

Updated: 1:00 PM EDT on June 27, 2017

Marine & Boating Location Search

Enter a coastal zip code for marine weather.

Current Wave Detail Observations

Water Depth: 2913 ft
Wave Height: 2.82 ft
Spectral Peak Period: 7.7 sec
Average Wave Period: 4.5 sec
Sampling Interval: 0.6 sec
Wave Record: 2400 sec

Updated: 1:00 PM EDT on June 27, 2017

General Information

Location: 28.903 North -78.464 West
Buoy Type: 3-meter discus buoy
Buoy Hull: 3D26
Payload: ARES payload
Owned by: NDBC
Windspeed: Measured by obtained from anemometer
Sea Surface: Measured by Intake

Weather and Wave Data

Time Temp Humidity Wind Dominant Wave Wind Wave Wave Swell Pressure
  Air
(°F)
Water
(°F)
  Dir Speed
(kts)
Speed
(mph)
Period
(sec)
Height
(ft)
Range
(ft)
Period
(sec)
Height
(ft)
Range
(ft)
Period
(sec)
Height
(ft)
Range
(ft)
Atmo.
(in)
Tend.
(in)
20:10 83 84 63 ESE 1.9 2.2 - - - - - - 30.02 -
20:20 83 84 63 East 1.9 2.2 - - - - - - 30.03 -
20:30 83 84 62 East 3.9 4.5 - - - - - - 30.03 -
20:40 83 84 62 East 3.9 4.5 - - - - - - 30.03 -
20:50 83 84 63 East 3.9 4.5 7 2.62 exactly 2.6 4 1.64 0.82 - 2.46 7 1.64 0.82 - 2.46 30.04 -
21:10 83 84 62 East 5.8 6.7 - - - - - - 30.04 -
21:20 83 84 63 ESE 5.8 6.7 - - - - - - 30.04 -
21:40 83 84 66 ESE 5.8 6.7 - - - - - - 30.04 -
21:50 82 84 67 ESE 5.8 6.7 7 2.62 exactly 2.6 4 1.64 0.82 - 2.46 7 1.64 0.82 - 2.46 30.04 -
22:10 83 84 64 SE 5.8 6.7 - - - - - - 30.04 -
22:20 83 84 63 SE 3.9 4.5 - - - - - - 30.05 -
22:30 83 84 64 SE 5.8 6.7 - - - - - - 30.05 -
22:40 83 84 66 SE 5.8 6.7 - - - - - - 30.05 -
22:50 83 84 69 SSE 5.8 6.7 7 2.62 exactly 2.6 4 1.64 0.82 - 2.46 7 3.28 2.46 - 4.10 30.05 -
23:10 83 84 71 SSE 7.8 8.9 - - - - - - 30.06 -
23:20 83 84 70 SSE 7.8 8.9 - - - - - - 30.05 -
23:30 83 84 71 SSE 7.8 8.9 - - - - - - 30.06 -
23:40 83 84 71 SSE 9.7 11.2 - - - - - - 30.05 -
23:50 83 84 73 SSE 9.7 11.2 8 2.62 exactly 2.6 4 1.64 0.82 - 2.46 8 1.64 0.82 - 2.46 30.05 -
00:10 82 84 76 SSE 9.7 11.2 - - - - - - 30.05 -
00:20 82 84 75 SSE 9.7 11.2 - - - - - - 30.04 -
00:30 82 84 74 SSE 9.7 11.2 - - - - - - 30.04 -
00:40 83 84 72 SSE 9.7 11.2 - - - - - - 30.04 -
00:50 83 84 73 SSE 11.7 13.4 7 2.62 exactly 2.6 5 1.64 0.82 - 2.46 7 1.64 0.82 - 2.46 30.04 -
01:10 82 84 71 SSE 15.6 17.9 - - - - - - 30.02 -
01:20 82 84 68 SSE 15.6 17.9 - - - - - - 30.02 -
01:30 82 83 65 SSE 13.6 15.7 - - - - - - 30.02 -
01:40 83 83 64 SSE 13.6 15.7 - - - - - - 30.02 -
02:00 82 83 73 South 11.7 13.4 - - - - - - 30.02 -0.04
02:10 82 83 73 SSE 11.7 13.4 - - - - - - 30.01 -
02:20 82 83 73 SSE 11.7 13.4 - - - - - - 30.01 -
02:30 82 83 75 South 13.6 15.7 - - - - - - 30.01 -
02:40 83 83 69 South 13.6 15.7 - - - - - - 30.01 -
02:50 83 83 73 SSE 13.6 15.7 7 2.95 exactly 3.0 5 1.64 0.82 - 2.46 7 1.64 0.82 - 2.46 30.01 -
03:10 83 83 73 South 13.6 15.7 - - - - - - 29.99 -
03:20 82 83 76 South 13.6 15.7 - - - - - - 29.99 -
03:30 83 83 74 South 15.6 17.9 - - - - - - 29.99 -
03:40 83 83 71 South 15.6 17.9 - - - - - - 29.98 -
04:00 83 83 73 South 17.5 20.1 - - - - - - 29.98 -0.06
04:10 83 83 72 South 17.5 20.1 - - - - - - 29.97 -
04:20 83 83 71 South 17.5 20.1 - - - - - - 29.98 -
04:40 83 83 71 South 15.6 17.9 - - - - - - 29.99 -
05:00 83 83 70 South 15.6 17.9 - - - - - - 29.99 -0.03
05:10 83 83 70 South 15.6 17.9 - - - - - - 29.99 -
05:20 83 83 71 South 13.6 15.7 - - - - - - 29.99 -
05:30 83 83 72 South 13.6 15.7 - - - - - - 29.99 -
05:40 83 83 73 South 13.6 15.7 - - - - - - 29.99 -
05:50 83 83 71 South 13.6 15.7 8 3.28 exactly 3.3 4 3.28 2.46 - 4.10 8 1.64 0.82 - 2.46 29.99 -
06:00 83 83 72 South 13.6 15.7 - - - - - - 29.99 -0.01
06:10 83 83 71 South 11.7 13.4 - - - - - - 29.99 -
06:30 83 83 71 South 11.7 13.4 - - - - - - 29.99 -
06:40 83 83 70 South 11.7 13.4 - - - - - - 30.00 -
06:50 83 83 71 South 11.7 13.4 8 3.28 exactly 3.3 4 3.28 2.46 - 4.10 8 1.64 0.82 - 2.46 30.00 -
07:10 83 83 71 SSW 11.7 13.4 - - - - - - 30.01 -
07:20 83 83 70 SSW 11.7 13.4 - - - - - - 30.01 -
07:30 83 83 69 SSW 11.7 13.4 - - - - - - 30.01 -
07:40 83 83 69 SSW 11.7 13.4 - - - - - - 30.01 -
07:50 83 83 70 SSW 11.7 13.4 6 3.28 exactly 3.3 4 3.28 2.46 - 4.10 6 1.64 0.82 - 2.46 30.01 -
08:00 83 83 72 SSW 9.7 11.2 - - - - - - 30.01 +0.02
08:10 83 83 72 SSW 9.7 11.2 - - - - - - 30.01 -
08:20 83 83 70 SSW 11.7 13.4 - - - - - - 30.01 -
08:40 83 83 73 SSW 9.7 11.2 - - - - - - 30.02 -
08:50 83 83 71 SSW 11.7 13.4 4 3.28 exactly 3.3 4 1.64 0.82 - 2.46 8 1.64 0.82 - 2.46 30.02 -
09:10 83 83 71 SSW 11.7 13.4 - - - - - - 30.02 -
09:20 83 83 70 SSW 11.7 13.4 - - - - - - 30.02 -
09:30 83 83 71 SSW 9.7 11.2 - - - - - - 30.02 -
09:40 83 83 71 SSW 9.7 11.2 - - - - - - 30.01 -
09:50 83 83 72 SSW 9.7 11.2 7 2.95 exactly 3.0 4 1.64 0.82 - 2.46 7 1.64 0.82 - 2.46 30.01 -
10:00 83 83 73 SSW 9.7 11.2 - - - - - - 30.01 +0.01
10:10 83 83 72 SSW 11.7 13.4 - - - - - - 30.02 -
10:20 83 83 73 SSW 11.7 13.4 - - - - - - 30.02 -
10:30 83 84 72 SW 11.7 13.4 - - - - - - 30.03 -
10:40 83 84 70 SW 11.7 13.4 - - - - - - 30.04 -
10:50 83 84 71 SW 11.7 13.4 7 2.62 exactly 2.6 5 1.64 0.82 - 2.46 7 1.64 0.82 - 2.46 30.03 -
11:00 83 84 71 SW 11.7 13.4 - - - - - - 30.02 +0.02
11:10 83 84 71 SW 11.7 13.4 - - - - - - 30.02 -
11:20 83 84 73 SSW 9.7 11.2 - - - - - - 30.02 -
11:30 83 84 73 SW 9.7 11.2 - - - - - - 30.02 -
11:40 83 84 71 SW 9.7 11.2 - - - - - - 30.02 -
11:50 83 84 70 SW 11.7 13.4 7 2.95 exactly 3.0 5 1.64 0.82 - 2.46 7 1.64 0.82 - 2.46 30.02 -
12:10 83 84 70 SW 11.7 13.4 - - - - - - 30.02 -
12:20 83 84 70 SW 9.7 11.2 - - - - - - 30.02 -
12:30 83 84 71 SW 9.7 11.2 - - - - - - 30.02 -
12:40 83 84 71 SW 9.7 11.2 - - - - - - 30.02 -
12:50 83 84 70 SW 7.8 8.9 8 2.95 exactly 3.0 4 1.64 0.82 - 2.46 8 1.64 0.82 - 2.46 30.02 -

Detailed Wave Spectra

Time Water Depth Wave Height Spectral Peak Period Average Wave Period Sampling Interval Wave Record
20:00 2913 ft 2.62 ft 7.7 sec 5.3 sec 0.6 sec 2400 sec
21:00 2913 ft 2.49 ft 6.7 sec 5.3 sec 0.6 sec 2400 sec
22:00 2913 ft 2.59 ft 7.1 sec 5.3 sec 0.6 sec 2400 sec
23:00 2913 ft 2.69 ft 7.1 sec 5.4 sec 0.6 sec 2400 sec
00:00 2913 ft 2.69 ft 7.7 sec 5.4 sec 0.6 sec 2400 sec
01:00 2913 ft 2.66 ft 7.1 sec 5.1 sec 0.6 sec 2400 sec
03:00 2913 ft 2.92 ft 6.7 sec 4.7 sec 0.6 sec 2400 sec
07:00 2913 ft 3.35 ft 7.7 sec 4.3 sec 0.6 sec 2400 sec
09:00 2913 ft 3.15 ft 4.3 sec 4.4 sec 0.6 sec 2400 sec
12:00 2913 ft 2.82 ft 7.1 sec 4.4 sec 0.6 sec 2400 sec
13:00 2913 ft 2.82 ft 7.7 sec 4.5 sec 0.6 sec 2400 sec